createdAt,value
2023-05-05T00:01:24.984Z,97422.81
2023-05-05T00:04:10.413Z,97413.56
2023-05-05T00:06:55.201Z,97424.72
2023-05-05T00:09:40.415Z,97411.91
2023-05-05T00:12:25.683Z,97420.94
2023-05-05T00:15:11.111Z,97418.44
2023-05-05T00:17:56.717Z,97420.41
2023-05-05T00:20:41.910Z,97426.34
2023-05-05T00:23:27.303Z,97415.75
2023-05-05T00:26:12.653Z,97418.78
2023-05-05T00:28:57.666Z,97419.59
2023-05-05T00:31:43.114Z,97422.00
2023-05-05T00:34:28.276Z,97414.94
2023-05-05T00:37:13.497Z,97419.28
2023-05-05T00:39:58.854Z,97407.59
2023-05-05T00:42:44.048Z,97410.84
2023-05-05T00:45:29.411Z,97406.22
2023-05-05T00:48:14.767Z,97411.41
2023-05-05T00:51:00.176Z,97401.59
2023-05-05T00:53:45.672Z,97408.69
2023-05-05T00:56:31.077Z,97402.16
2023-05-05T00:59:16.260Z,97407.59
2023-05-05T01:02:01.941Z,97402.44
2023-05-05T01:04:47.095Z,97400.53
2023-05-05T01:07:32.480Z,97396.97
2023-05-05T01:10:20.607Z,97393.97
2023-05-05T01:13:06.341Z,97389.88
2023-05-05T01:15:51.560Z,97395.63
2023-05-05T01:18:37.062Z,97394.53
2023-05-05T01:21:26.239Z,97394.22
2023-05-05T01:24:11.464Z,97398.63
2023-05-05T01:26:57.017Z,97396.19
2023-05-05T01:29:42.327Z,97398.91
2023-05-05T01:32:27.698Z,97403.28
2023-05-05T01:35:12.892Z,97392.59
2023-05-05T01:37:58.376Z,97395.31
2023-05-05T01:40:43.862Z,97387.41
2023-05-05T01:43:29.226Z,97398.63
2023-05-05T01:46:14.531Z,97390.75
2023-05-05T01:48:59.947Z,97396.19
2023-05-05T01:51:45.472Z,97386.38
2023-05-05T01:54:30.753Z,97395.84
2023-05-05T01:57:16.202Z,97392.88
2023-05-05T02:00:01.631Z,97403.00
2023-05-05T02:02:47.202Z,97394.50
2023-05-05T02:05:32.375Z,97398.63
2023-05-05T02:08:17.574Z,97396.19
2023-05-05T02:11:02.955Z,97394.00
2023-05-05T02:13:48.483Z,97387.97
2023-05-05T02:16:33.573Z,97389.03
2023-05-05T02:19:18.972Z,97388.84
2023-05-05T02:22:04.107Z,97388.03
2023-05-05T02:24:49.559Z,97388.53
2023-05-05T02:27:35.029Z,97388.53
2023-05-05T02:30:20.189Z,97380.88
2023-05-05T02:33:05.785Z,97386.06
2023-05-05T02:35:50.850Z,97386.91
2023-05-05T02:38:36.178Z,97392.09
2023-05-05T02:41:21.598Z,97392.09
2023-05-05T02:44:07.001Z,97388.56
2023-05-05T02:46:52.467Z,97386.63
2023-05-05T02:49:40.616Z,97392.91
2023-05-05T02:52:25.664Z,97391.81
2023-05-05T02:55:13.157Z,97389.66
2023-05-05T02:57:58.121Z,97385.28
2023-05-05T03:00:43.459Z,97389.06
2023-05-05T03:03:28.886Z,97388.03
2023-05-05T03:06:14.272Z,97383.63
2023-05-05T03:08:59.677Z,97383.59
2023-05-05T03:11:45.027Z,97374.38
2023-05-05T03:14:32.119Z,97371.41
2023-05-05T03:17:18.411Z,97371.66
2023-05-05T03:20:04.007Z,97370.56
2023-05-05T03:22:49.356Z,97375.25
2023-05-05T03:25:34.704Z,97376.84
2023-05-05T03:28:20.011Z,97380.09
2023-05-05T03:31:05.304Z,97375.47
2023-05-05T03:33:50.849Z,97374.91
2023-05-05T03:36:36.362Z,97368.41
2023-05-05T03:39:21.809Z,97379.03
2023-05-05T03:42:07.083Z,97372.47
2023-05-05T03:44:52.298Z,97382.03
2023-05-05T03:47:37.758Z,97373.31
2023-05-05T03:50:22.778Z,97384.47
2023-05-05T03:53:08.176Z,97375.22
2023-05-05T03:55:53.615Z,97374.94
2023-05-05T03:58:39.027Z,97384.75
2023-05-05T04:01:24.276Z,97381.78
2023-05-05T04:04:09.746Z,97371.66
2023-05-05T04:06:55.061Z,97378.22
2023-05-05T04:09:40.352Z,97371.66
2023-05-05T04:12:25.665Z,97363.25
2023-05-05T04:15:11.157Z,97372.22
2023-05-05T04:17:56.447Z,97375.81
2023-05-05T04:20:41.784Z,97369.22
2023-05-05T04:23:27.205Z,97380.13
2023-05-05T04:26:12.589Z,97374.72
2023-05-05T04:28:57.962Z,97375.50
2023-05-05T04:31:43.075Z,97378.78
2023-05-05T04:34:28.388Z,97376.06
2023-05-05T04:37:13.688Z,97368.72
2023-05-05T04:39:58.952Z,97375.22
2023-05-05T04:42:44.416Z,97365.72
2023-05-05T04:45:29.902Z,97364.13
2023-05-05T04:48:16.490Z,97366.75
2023-05-05T04:51:01.660Z,97367.63
2023-05-05T04:53:47.195Z,97366.22
2023-05-05T04:56:32.646Z,97367.63
2023-05-05T04:59:17.919Z,97364.00
2023-05-05T05:02:02.961Z,97367.03
2023-05-05T05:04:48.137Z,97370.00
2023-05-05T05:07:33.613Z,97358.34
2023-05-05T05:10:18.791Z,97359.69
2023-05-05T05:13:04.189Z,97364.88
2023-05-05T05:15:49.453Z,97373.59
2023-05-05T05:18:34.690Z,97378.25
2023-05-05T05:21:20.162Z,97373.31
2023-05-05T05:24:05.629Z,97371.97
2023-05-05T05:26:50.864Z,97382.88
2023-05-05T05:29:36.114Z,97388.63
2023-05-05T05:32:21.486Z,97380.97
2023-05-05T05:35:06.457Z,97377.72
2023-05-05T05:37:51.826Z,97382.06
2023-05-05T05:40:37.309Z,97388.91
2023-05-05T05:43:22.689Z,97388.63
2023-05-05T05:46:09.369Z,97395.66
2023-05-05T05:48:54.610Z,97396.19
2023-05-05T05:51:39.781Z,97398.91
2023-05-05T05:54:25.329Z,97396.44
2023-05-05T05:57:10.605Z,97399.41
2023-05-05T07:24:43.836Z,97380.50
2023-05-05T07:27:28.849Z,97377.50
2023-05-05T07:30:17.590Z,97375.59
2023-05-05T07:33:04.268Z,97379.16
2023-05-05T07:35:49.777Z,97380.28
2023-05-05T07:38:35.165Z,97380.31
2023-05-05T07:41:20.242Z,97370.16
2023-05-05T07:44:05.658Z,97371.09
2023-05-05T07:46:50.865Z,97372.78
2023-05-05T07:49:36.214Z,97377.13
2023-05-05T07:52:30.114Z,97371.34
2023-05-05T07:55:22.680Z,97370.47
2023-05-05T07:58:07.921Z,97376.44
2023-05-05T08:00:53.445Z,97365.28
2023-05-05T08:03:39.015Z,97365.25
2023-05-05T08:06:24.086Z,97362.00
2023-05-05T08:09:09.351Z,97362.03
2023-05-05T08:11:54.681Z,97359.34
2023-05-05T08:14:39.912Z,97359.03
2023-05-05T08:17:25.120Z,97358.97
2023-05-05T08:20:10.543Z,97356.53
2023-05-05T08:22:55.990Z,97349.41
2023-05-05T08:25:41.291Z,97350.81
2023-05-05T08:28:26.557Z,97355.19
2023-05-05T08:31:12.088Z,97343.97
2023-05-05T08:33:57.372Z,97352.50
2023-05-05T08:36:42.832Z,97354.41
2023-05-05T08:39:28.318Z,97352.97
2023-05-05T08:42:19.696Z,97354.66
2023-05-05T08:45:11.516Z,97346.25
2023-05-05T08:47:56.999Z,97341.03
2023-05-05T08:50:42.420Z,97347.50
2023-05-05T08:53:27.669Z,97344.22
2023-05-05T08:56:13.034Z,97334.13
2023-05-05T08:58:58.382Z,97333.06
2023-05-05T09:01:43.581Z,97325.16
2023-05-05T09:04:28.900Z,97319.91
2023-05-05T09:07:14.304Z,97323.44
2023-05-05T09:09:59.717Z,97325.13
2023-05-05T09:12:45.144Z,97319.47
2023-05-05T09:15:30.397Z,97316.34
2023-05-05T09:18:16.030Z,97318.59
2023-05-05T09:21:01.211Z,97318.06
2023-05-05T09:23:46.532Z,97327.53
2023-05-05T09:26:31.770Z,97336.53
2023-05-05T09:29:17.105Z,97329.69
2023-05-05T09:32:02.457Z,97317.75
2023-05-05T09:34:47.838Z,97314.97
2023-05-05T09:37:32.952Z,97317.66
2023-05-05T09:40:18.163Z,97319.63
2023-05-05T09:43:03.586Z,97311.78
2023-05-05T09:45:49.030Z,97308.50
2023-05-05T09:48:34.297Z,97305.75
2023-05-05T09:51:19.499Z,97300.81
2023-05-05T09:54:05.017Z,97304.41
2023-05-05T09:56:50.352Z,97290.72
2023-05-05T09:59:35.708Z,97296.81
2023-05-05T10:02:21.006Z,97286.94
2023-05-05T10:05:07.390Z,97282.88
2023-05-05T10:07:52.711Z,97284.28
2023-05-05T10:10:38.185Z,97286.72
2023-05-05T10:13:23.575Z,97290.81
2023-05-05T10:16:09.113Z,97289.16
2023-05-05T10:18:54.298Z,97287.53
2023-05-05T10:21:41.968Z,97288.13
2023-05-05T10:24:27.665Z,97286.69
2023-05-05T10:27:13.009Z,97291.31
2023-05-05T10:29:58.472Z,97284.81
2023-05-05T10:35:31.755Z,97286.72
2023-05-05T10:38:17.038Z,97288.13
2023-05-05T10:41:02.462Z,97288.63
2023-05-05T10:43:47.855Z,97275.56
2023-05-05T10:46:33.275Z,97268.44
2023-05-05T10:49:18.313Z,97271.75
2023-05-05T10:52:03.778Z,97270.41
2023-05-05T10:54:49.134Z,97269.28
2023-05-05T10:57:34.432Z,97269.88
2023-05-05T11:00:19.888Z,97254.84
2023-05-05T11:03:05.277Z,97260.84
2023-05-05T11:05:50.803Z,97251.25
2023-05-05T11:08:36.194Z,97249.91
2023-05-05T11:11:21.690Z,97249.31
2023-05-05T14:13:17.881Z,97096.06
2023-05-05T14:16:03.092Z,97087.06
2023-05-05T14:18:48.347Z,97081.81
2023-05-05T14:21:33.670Z,97087.16
2023-05-05T14:24:19.060Z,97080.41
2023-05-05T14:27:04.560Z,97087.88
2023-05-05T14:29:49.882Z,97083.78
2023-05-05T14:32:35.418Z,97080.50
2023-05-05T14:35:20.690Z,97081.03
2023-05-05T14:38:05.936Z,97070.34
2023-05-05T14:40:51.091Z,97074.81
2023-05-05T14:43:36.363Z,97075.09
2023-05-05T14:46:21.800Z,97082.81
2023-05-05T14:49:07.117Z,97077.22
2023-05-05T14:51:53.907Z,97074.88
2023-05-05T14:54:39.968Z,97078.13
2023-05-05T14:57:25.235Z,97070.00
2023-05-05T15:00:10.618Z,97076.19
2023-05-05T15:02:56.123Z,97072.38
2023-05-05T15:05:41.256Z,97069.72
2023-05-05T15:08:29.570Z,97078.97
2023-05-05T15:11:14.838Z,97084.84
2023-05-05T15:14:00.027Z,97085.75
2023-05-05T15:16:45.330Z,97090.31
2023-05-05T15:19:30.751Z,97086.78
2023-05-05T15:22:16.052Z,97082.00
2023-05-05T15:25:01.562Z,97096.75
2023-05-05T15:27:46.833Z,97095.09
2023-05-05T15:30:32.030Z,97090.41
2023-05-05T15:33:17.319Z,97087.78
2023-05-05T15:36:02.767Z,97092.75
2023-05-05T15:38:48.220Z,97098.53
2023-05-05T15:41:33.304Z,97085.38
2023-05-05T15:44:18.772Z,97081.25
2023-05-05T15:47:03.929Z,97089.06
2023-05-05T15:49:49.164Z,97095.94
2023-05-05T15:52:34.414Z,97098.81
2023-05-05T15:55:19.704Z,97097.75
2023-05-05T15:58:05.092Z,97108.81
2023-05-05T16:00:50.497Z,97103.06
2023-05-05T16:03:35.752Z,97105.66
2023-05-05T16:06:20.964Z,97106.25
2023-05-05T16:09:06.257Z,97107.28
2023-05-05T16:11:51.590Z,97105.91
2023-05-05T16:14:37.127Z,97106.84
2023-05-05T16:17:22.816Z,97115.56
2023-05-05T16:20:08.193Z,97117.72
2023-05-05T16:22:53.575Z,97120.75
2023-05-05T16:25:39.089Z,97118.06
2023-05-05T16:28:24.406Z,97121.59
2023-05-05T16:31:09.735Z,97114.22
2023-05-05T16:33:55.145Z,97121.56
2023-05-05T16:36:41.261Z,97116.63
2023-05-05T16:39:27.348Z,97114.19
2023-05-05T16:42:12.836Z,97112.16
2023-05-05T16:44:58.260Z,97111.72
2023-05-05T16:47:43.485Z,97112.09
2023-05-05T16:50:28.841Z,97119.59
2023-05-05T16:53:17.169Z,97116.72
2023-05-05T16:56:02.558Z,97122.53
2023-05-05T16:58:47.604Z,97119.69
2023-05-05T17:01:33.221Z,97117.31
2023-05-05T17:04:18.607Z,97115.75
2023-05-05T17:07:03.985Z,97113.69
2023-05-05T17:09:49.454Z,97116.03
2023-05-05T17:12:34.825Z,97114.13
2023-05-05T17:15:20.058Z,97112.00
2023-05-05T17:18:05.602Z,97108.00
2023-05-05T17:20:50.976Z,97114.16
2023-05-05T17:23:36.347Z,97107.16
2023-05-05T17:26:21.456Z,97117.28
2023-05-05T17:29:06.932Z,97125.38
2023-05-05T17:31:52.298Z,97115.44
2023-05-05T17:34:37.541Z,97111.97
2023-05-05T17:37:22.885Z,97119.28
2023-05-05T17:40:08.363Z,97125.50
2023-05-05T17:42:53.812Z,97124.59
2023-05-05T17:45:39.225Z,97131.50
2023-05-05T17:48:24.576Z,97129.09
2023-05-05T17:51:09.691Z,97138.88
2023-05-05T17:53:55.027Z,97132.81
2023-05-05T17:56:40.191Z,97133.69
2023-05-05T17:59:25.456Z,97138.44
2023-05-05T18:02:10.952Z,97141.75
2023-05-05T18:04:56.196Z,97144.72
2023-05-05T18:07:41.477Z,97149.94
2023-05-05T18:10:26.702Z,97152.44
2023-05-05T18:13:12.095Z,97151.81
2023-05-05T18:15:57.393Z,97127.16
2023-05-05T18:18:42.654Z,97131.44
2023-05-05T18:21:28.203Z,97132.94
2023-05-05T18:24:20.129Z,97130.31
2023-05-05T18:27:05.859Z,97132.50
2023-05-05T18:29:51.105Z,97132.97
2023-05-05T18:32:36.460Z,97172.09
2023-05-05T18:35:21.682Z,97174.63
2023-05-05T18:38:07.268Z,97174.53
2023-05-05T18:40:52.619Z,97180.41
2023-05-05T18:43:38.054Z,97185.88
2023-05-05T18:46:26.490Z,97188.59
2023-05-05T18:49:11.892Z,97192.13
2023-05-05T18:51:57.274Z,97189.59
2023-05-05T18:54:42.444Z,97183.06
2023-05-05T18:57:27.805Z,97185.53
2023-05-05T19:00:13.378Z,97190.41
2023-05-05T19:02:58.696Z,97190.47
2023-05-05T19:05:43.999Z,97190.97
2023-05-05T19:08:29.384Z,97187.22
2023-05-05T19:11:14.869Z,97187.72
2023-05-05T19:14:00.261Z,97197.81
2023-05-05T19:16:45.743Z,97203.53
2023-05-05T19:19:31.171Z,97198.94
2023-05-05T19:22:16.485Z,97208.19
2023-05-05T19:25:01.935Z,97212.78
